Etusivu
METAR-TAF:

METAR-TAF

Lentoasemat :

Jefferson County International Airport

Port Townsend, Washington, Yhdysvallat

Leveyspiiri: 48-03-14N, Pituuspiiri: 122-48-38W, korkeus merenpinnasta: 33 m

Tämänhetkinen sää

Tämä raportti tehtiin 18 minuuttia sitten, kello 02.35 UTC
Tuuli 4 kn idästä/koillisesta
Lämpötila 9°C
Kosteus 100%
Ilmanpaine 1002 hPa
Näkyvyys: 8.0 km
Hajanaisia pilviä 2700 ft:n korkeudessa
Pilvistä 6500 ft:n korkeudessa
heikkoa sadetta

METAR: K0S9 190235Z AUTO 07004KT 5SM -RA SCT027 OVC065 09/09 A2960 RMK AO2

Aika: 18:53 (02:53 UTC)


TAF: puuttuu

Säähavainnot ja -ennusteet yli 4000 lentoasemalta (METAR- ja TAF-raportit).

Käytössä olevat sääasemat on merkitty karttaan keltaisilla ja punaisilla pisteillä.

Aseta hiiri pisteen päälle nähdäksesi sääaseman nimen.

Klikkaa sitten nähdäksesi säähavainnot ja -ennusteet.

Kartan vaihtaminen: klikkaa mustalla rastilla varustettuja vihreitä pisteitä, niin voit zoomata sisään; viivalla varustettua vihreää pistettä, niin voit zoomata ulos tai vihreitä nuolia, niin pääset viereisille kartoille.


METAR-TAF: